This is the latest recevied weather packets stored in our database for station/object KE2HEH. If no packets are shown the sender has not sent any weather packets the latest 1 day(s).
| Time | Temp. | Humidity | Pressure | Rain* | Wind** | Luminosity | Snow |
|---|---|---|---|---|---|---|---|
| 1778013043 | 14.44° C | 85% | 1009.3 hPa | 0 mm | 8.05 m/s, 202° | 273 W/m² | - |
| 1778012739 | 14.44° C | 85% | 1009.2 hPa | 0 mm | 7.6 m/s, 234° | 330 W/m² | - |
| 1778012435 | 14.44° C | 85% | 1009.6 hPa | 0 mm | 8.05 m/s, 199° | 358 W/m² | - |
| 1778012132 | 14.44° C | 85% | 1009.4 hPa | 0 mm | 6.71 m/s, 186° | 333 W/m² | - |
| 1778011830 | 14.44° C | 85% | 1009.3 hPa | 0 mm | 7.6 m/s, 162° | 376 W/m² | - |
| 1778011528 | 14.44° C | 85% | 1009.7 hPa | 0 mm | 7.6 m/s, 216° | 396 W/m² | - |
| 1778011224 | 14.44° C | 85% | 1009.4 hPa | 0 mm | 8.94 m/s, 163° | 360 W/m² | - |
| 1778010920 | 14.44° C | 86% | 1009.5 hPa | 0 mm | 7.6 m/s, 212° | 414 W/m² | - |
| 1778010618 | 14.44° C | 86% | 1009.5 hPa | 0 mm | 6.71 m/s, 213° | 400 W/m² | - |
| 1778010315 | 14.44° C | 86% | 1009.9 hPa | 0 mm | 8.49 m/s, 181° | 410 W/m² | - |
| 1778010010 | 14.44° C | 86% | 1009.8 hPa | 0 mm | 8.49 m/s, 180° | 434 W/m² | - |
| 1778009708 | 14.44° C | 86% | 1009.8 hPa | 0 mm | 9.39 m/s, 229° | 454 W/m² | - |
| 1778009405 | 14.44° C | 86% | 1009.9 hPa | 0 mm | 8.49 m/s, 209° | 455 W/m² | - |
| 1778009103 | 14.44° C | 85% | 1009.9 hPa | 0 mm | 7.6 m/s, 162° | 429 W/m² | - |
| 1778008801 | 14.44° C | 85% | 1010.2 hPa | 0 mm | 6.71 m/s, 202° | 484 W/m² | - |
| 1778008499 | 14.44° C | 86% | 1010.3 hPa | 0 mm | 4.02 m/s, 178° | 481 W/m² | - |
| 1778008196 | 14.44° C | 86% | 1010.6 hPa | 0 mm | 7.15 m/s, 184° | 519 W/m² | - |
| 1778007890 | 14.44° C | 86% | 1010.4 hPa | 0 mm | 5.81 m/s, 204° | 500 W/m² | - |
| 1778007586 | 14.44° C | 86% | 1010.6 hPa | 0 mm | 7.6 m/s, 183° | 494 W/m² | - |
| 1778007284 | 14.44° C | 86% | 1010.5 hPa | 0 mm | 8.05 m/s, 208° | 491 W/m² | - |
| 1778006980 | 14.44° C | 86% | 1010.7 hPa | 0 mm | 6.26 m/s, 184° | 490 W/m² | - |
| 1778006677 | 14.44° C | 86% | 1010.8 hPa | 0 mm | 6.26 m/s, 214° | 546 W/m² | - |
| 1778006373 | 14.44° C | 86% | 1010.8 hPa | 0 mm | 7.6 m/s, 206° | 540 W/m² | - |
| 1778006070 | 14.44° C | 86% | 1010.8 hPa | 0 mm | 6.71 m/s, 197° | 530 W/m² | - |
| 1778005767 | 14.44° C | 86% | 1011.1 hPa | 0 mm | 7.6 m/s, 211° | 543 W/m² | - |
* Rain latest hour (hover to see other rain measurements)
** Current wind speed in m/s (hover to see current wind gust speed)